Time;durP1;ratioP1;P1;durP2;ratioP2;P2;SDS_P1;SDS_P2;PMS_P1;PMS_P2;Temp;Humidity;BMP_temperature;BMP_pressure;BME280_temperature;BME280_humidity;BME280_pressure;Samples;Min_cycle;Max_cycle;Signal;HPM_P1;HPM_P2
2022/08/12 00:43:00;;;;;;;3.40;2.00;;;;;14.86;97693.40;;;;110960;1247;41155;-62
2022/08/12 00:46:29;;;;;;;4.10;2.00;;;;;14.80;97691.20;;;;110986;1248;41193;-62
2022/08/12 00:48:19;;;;;;;5.60;2.30;;;;;14.80;97688.60;;;;110964;1248;42663;-62
2022/08/12 00:50:51;;;;;;;4.80;2.10;;;;;14.78;97694.60;;;;111036;1248;41261;-63
2022/08/12 00:53:23;;;;;;;3.70;2.00;;;;;14.70;97699.40;;;;111066;1248;41123;-63
2022/08/12 00:55:56;;;;;;;2.60;1.60;;;;;14.70;97699.00;;;;110664;1252;41265;-62
2022/08/12 00:58:28;;;;;;;4.90;2.20;;;;;14.70;97698.00;;;;111167;1247;41152;-63
2022/08/12 01:01:07;;;;;;;3.70;2.00;;;;;14.70;97699.00;;;;110888;1250;41985;-62
2022/08/12 01:12:09;;;;;;;3.80;1.70;;;;;14.60;97700.80;;;;111011;1250;41717;-63
2022/08/12 01:14:39;;;;;;;3.60;1.80;;;;;14.60;97698.20;;;;111178;1247;41149;-63
2022/08/12 01:17:09;;;;;;;4.60;1.90;;;;;14.52;97695.20;;;;111029;1249;41261;-63
2022/08/12 01:19:39;;;;;;;3.50;1.70;;;;;14.50;97696.40;;;;111112;1249;41483;-63
2022/08/12 01:22:21;;;;;;;3.50;1.90;;;;;14.50;97695.40;;;;110929;1249;41256;-62
2022/08/12 01:25:09;;;;;;;4.20;2.00;;;;;14.40;97691.80;;;;110861;1248;41526;-63
2022/08/12 01:27:40;;;;;;;4.90;2.00;;;;;14.40;97692.20;;;;111052;1248;41180;-63
2022/08/12 01:30:11;;;;;;;4.30;2.00;;;;;14.36;97691.60;;;;110921;1249;41137;-63
2022/08/12 01:32:46;;;;;;;2.90;1.80;;;;;14.30;97686.20;;;;111080;1247;42249;-63
2022/08/12 01:35:16;;;;;;;4.50;2.30;;;;;14.30;97682.40;;;;110776;1248;41160;-63
2022/08/12 01:37:53;;;;;;;5.50;2.20;;;;;14.30;97683.00;;;;110671;1249;41722;-63
2022/08/12 01:40:29;;;;;;;4.80;2.20;;;;;14.30;97686.00;;;;110979;1247;41137;-63
2022/08/12 01:43:08;;;;;;;5.10;2.10;;;;;14.30;97684.00;;;;110891;1249;41217;-63
2022/08/12 01:45:48;;;;;;;4.30;2.00;;;;;14.30;97681.00;;;;110656;1249;41210;-63
2022/08/12 01:48:29;;;;;;;4.30;2.00;;;;;14.20;97681.20;;;;110772;1249;41157;-63
2022/08/12 01:51:25;;;;;;;3.60;1.90;;;;;14.20;97680.00;;;;110772;1248;42385;-63
2022/08/12 01:54:18;;;;;;;3.20;1.70;;;;;14.10;97673.00;;;;110720;1250;41497;-63
2022/08/12 01:57:01;;;;;;;4.80;1.80;;;;;14.10;97674.20;;;;110749;1250;41364;-63
2022/08/12 01:59:45;;;;;;;3.60;1.80;;;;;14.00;97672.60;;;;111062;1249;41139;-63
2022/08/12 02:02:18;;;;;;;5.90;2.40;;;;;14.00;97677.40;;;;110771;1249;41205;-63
2022/08/12 02:11:21;;;;;;;2.60;1.70;;;;;13.80;97673.40;;;;110766;1250;41834;-63
2022/08/12 02:14:19;;;;;;;6.10;2.00;;;;;13.80;97672.40;;;;110995;1248;41764;-62
2022/08/12 02:16:58;;;;;;;7.50;2.50;;;;;13.70;97676.60;;;;110940;1248;41259;-62
2022/08/12 02:19:48;;;;;;;4.10;1.90;;;;;13.70;97675.00;;;;111029;1248;42394;-63
2022/08/12 02:22:28;;;;;;;3.80;1.90;;;;;13.70;97671.60;;;;110798;1250;41577;-63
2022/08/12 02:25:06;;;;;;;3.90;1.80;;;;;13.60;97667.60;;;;110994;1250;41223;-63
2022/08/12 02:27:44;;;;;;;3.10;1.80;;;;;13.60;97672.20;;;;110985;1249;41260;-63
2022/08/12 02:30:20;;;;;;;6.30;2.10;;;;;13.60;97667.80;;;;111087;1248;41750;-62
2022/08/12 02:32:53;;;;;;;3.90;1.90;;;;;13.60;97665.80;;;;110795;1250;42647;-63
2022/08/12 02:35:31;;;;;;;6.40;2.40;;;;;13.60;97669.60;;;;110645;1251;41702;-63
2022/08/12 02:38:04;;;;;;;6.30;2.30;;;;;13.50;97669.80;;;;111083;1247;41125;-64
2022/08/12 02:40:38;;;;;;;5.60;2.60;;;;;13.40;97677.80;;;;110966;1247;41263;-63
2022/08/12 02:43:27;;;;;;;6.00;2.70;;;;;13.24;97676.80;;;;111038;1248;41923;-64
2022/08/12 02:46:03;;;;;;;4.80;2.30;;;;;13.20;97677.40;;;;111042;1248;41184;-63
2022/08/12 02:48:51;;;;;;;6.10;2.30;;;;;13.20;97671.60;;;;111062;1248;41718;-64
2022/08/12 02:51:25;;;;;;;4.70;2.20;;;;;13.20;97669.00;;;;110912;1249;41151;-64
2022/08/12 02:53:58;;;;;;;3.70;2.00;;;;;13.20;97667.60;;;;110828;1251;41150;-64
2022/08/12 02:56:39;;;;;;;5.20;1.90;;;;;13.22;97666.00;;;;110879;1250;41156;-63
2022/08/12 02:59:12;;;;;;;4.00;2.10;;;;;13.20;97667.00;;;;111002;1247;41351;-64
2022/08/12 03:01:48;;;;;;;5.20;2.10;;;;;13.20;97666.20;;;;111065;1249;41448;-62
2022/08/12 03:04:23;;;;;;;6.00;2.60;;;;;13.20;97665.20;;;;110788;1249;41136;-63
2022/08/12 03:07:21;;;;;;;5.10;2.40;;;;;13.20;97665.20;;;;110716;1249;41250;-64
2022/08/12 03:09:54;;;;;;;5.10;2.10;;;;;13.20;97661.40;;;;110788;1250;41394;-64
2022/08/12 03:12:56;;;;;;;3.70;2.00;;;;;13.20;97657.80;;;;110791;1249;41601;-63
2022/08/12 03:15:26;;;;;;;3.40;1.90;;;;;13.20;97651.60;;;;110803;1249;41727;-65
2022/08/12 03:18:22;;;;;;;3.40;1.70;;;;;13.14;97654.20;;;;110769;1250;41198;-63
2022/08/12 03:20:58;;;;;;;3.90;1.80;;;;;13.10;97654.60;;;;110903;1249;41552;-64
2022/08/12 03:23:29;;;;;;;4.70;1.80;;;;;13.12;97653.60;;;;110766;1250;41195;-63
2022/08/12 03:26:00;;;;;;;3.70;1.90;;;;;13.12;97657.20;;;;110752;1249;41130;-63
2022/08/12 03:28:52;;;;;;;3.70;1.90;;;;;13.10;97654.00;;;;110836;1249;41146;-63
2022/08/12 03:31:23;;;;;;;4.50;2.30;;;;;13.10;97652.20;;;;110724;1250;41680;-65
2022/08/12 03:34:08;;;;;;;5.50;2.60;;;;;13.18;97648.40;;;;110591;1251;41155;-65
2022/08/12 03:36:40;;;;;;;4.90;2.20;;;;;13.20;97647.20;;;;110969;1250;42097;-63
2022/08/12 03:41:52;;;;;;;3.90;1.90;;;;;13.10;97641.60;;;;110825;1248;41300;-64
2022/08/12 04:01:56;;;;;;;4.60;2.30;;;;;13.10;97670.20;;;;111048;1248;41152;-63
2022/08/12 04:04:33;;;;;;;5.80;2.70;;;;;13.10;97668.20;;;;110885;1249;41624;-63
2022/08/12 04:07:09;;;;;;;5.50;2.50;;;;;13.10;97663.40;;;;110916;1249;41421;-63
2022/08/12 04:09:42;;;;;;;5.50;2.40;;;;;13.10;97663.00;;;;111044;1248;41156;-63
2022/08/12 04:15:01;;;;;;;7.50;3.10;;;;;13.80;97666.60;;;;110746;1249;41601;-63
2022/08/12 04:17:30;;;;;;;6.20;2.80;;;;;14.58;97664.20;;;;110690;1249;41156;-63
2022/08/12 04:20:00;;;;;;;6.10;2.80;;;;;15.32;97635.00;;;;110894;1249;42346;-64
2022/08/12 04:22:30;;;;;;;6.60;3.20;;;;;16.04;97652.60;;;;110664;1250;41164;-63
2022/08/12 04:25:00;;;;;;;5.70;2.60;;;;;16.28;97647.20;;;;110843;1249;41577;-65
2022/08/12 04:27:30;;;;;;;;;;;;;16.32;97637.20;;;;110779;1250;41956;-64
2022/08/12 04:30:00;;;;;;;5.80;2.70;;;;;16.80;97626.80;;;;111008;1250;41161;-65
2022/08/12 04:32:46;;;;;;;6.00;2.60;;;;;17.20;97619.40;;;;111036;1249;42217;-64
2022/08/12 04:35:17;;;;;;;5.80;2.40;;;;;17.76;97618.60;;;;110787;1249;41347;-64
2022/08/12 04:37:52;;;;;;;6.40;2.30;;;;;18.40;97611.20;;;;111017;1249;41262;-65
2022/08/12 04:40:28;;;;;;;5.10;2.40;;;;;19.04;97606.00;;;;110927;1249;41512;-63
2022/08/12 04:42:59;;;;;;;4.80;2.20;;;;;19.76;97609.60;;;;110892;1249;41169;-66
2022/08/12 04:45:33;;;;;;;5.30;2.20;;;;;20.46;97611.40;;;;110909;1250;41153;-62
2022/08/12 04:48:03;;;;;;;5.60;2.50;;;;;21.16;97614.80;;;;110862;1249;41151;-64
2022/08/12 04:50:34;;;;;;;4.40;2.40;;;;;21.70;97614.00;;;;110856;1249;41894;-63
2022/08/12 04:53:07;;;;;;;5.10;2.60;;;;;22.10;97616.00;;;;109809;1249;1321258;-63
2022/08/12 04:55:37;;;;;;;5.40;2.20;;;;;22.30;97610.60;;;;110762;1251;41174;-63
2022/08/12 04:58:09;;;;;;;6.40;2.20;;;;;22.86;97611.00;;;;111006;1250;41130;-63
2022/08/12 05:00:38;;;;;;;5.30;2.00;;;;;23.30;97609.00;;;;110965;1247;41540;-62
2022/08/12 05:03:08;;;;;;;6.20;2.20;;;;;23.80;97607.00;;;;111023;1249;41197;-64
2022/08/12 05:05:39;;;;;;;5.60;2.00;;;;;24.20;97607.40;;;;110653;1250;41136;-63
2022/08/12 05:08:16;;;;;;;3.90;2.10;;;;;24.64;97600.40;;;;110642;1248;41150;-64
2022/08/12 05:10:46;;;;;;;4.30;1.90;;;;;24.60;97602.80;;;;110743;1249;42264;-64
2022/08/12 05:13:21;;;;;;;4.50;2.00;;;;;24.98;97607.00;;;;110928;1249;41560;-64
2022/08/12 05:15:51;;;;;;;4.50;2.00;;;;;25.42;97603.20;;;;111048;1248;41622;-64
2022/08/12 05:18:34;;;;;;;5.60;2.50;;;;;25.90;97599.20;;;;110859;1249;41264;-64
2022/08/12 05:21:08;;;;;;;4.30;2.10;;;;;25.56;97601.00;;;;110974;1249;42377;-64
2022/08/12 05:23:38;;;;;;;3.80;2.00;;;;;25.80;97602.40;;;;110665;1250;41271;-62
2022/08/12 05:26:07;;;;;;;6.20;2.00;;;;;26.30;97603.60;;;;111083;1248;42081;-64
2022/08/12 05:28:36;;;;;;;5.10;2.20;;;;;26.74;97607.00;;;;110774;1247;41154;-65
2022/08/12 05:31:05;;;;;;;7.00;2.10;;;;;27.20;97604.80;;;;110722;1249;41584;-65
2022/08/12 05:33:39;;;;;;;3.90;1.80;;;;;27.56;97610.60;;;;110710;1251;42382;-64
2022/08/12 05:36:12;;;;;;;6.10;2.30;;;;;27.70;97604.40;;;;110649;1251;41149;-64
2022/08/12 05:38:57;;;;;;;5.60;2.30;;;;;27.74;97601.80;;;;110793;1249;41609;-63
2022/08/12 05:41:29;;;;;;;4.60;2.00;;;;;27.60;97598.20;;;;110748;1249;41156;-64
2022/08/12 05:44:08;;;;;;;4.30;1.90;;;;;27.78;97593.80;;;;110796;1249;41258;-64
2022/08/12 05:46:38;;;;;;;3.20;1.70;;;;;28.00;97594.20;;;;110922;1249;41969;-65
2022/08/12 05:49:07;;;;;;;4.90;1.70;;;;;28.30;97596.60;;;;110712;1249;41156;-65
2022/08/12 05:51:38;;;;;;;2.40;1.60;;;;;28.60;97596.20;;;;110877;1247;41565;-65
2022/08/12 05:54:10;;;;;;;3.40;1.60;;;;;28.80;97596.20;;;;111042;1249;41245;-65
2022/08/12 05:56:40;;;;;;;4.40;1.70;;;;;29.10;97593.00;;;;110972;1249;41264;-65
2022/08/12 05:59:10;;;;;;;3.10;1.60;;;;;29.40;97597.40;;;;110861;1247;41231;-65
2022/08/12 06:01:41;;;;;;;5.60;1.80;;;;;29.70;97592.00;;;;111015;1248;41136;-65
2022/08/12 06:04:30;;;;;;;5.80;1.80;;;;;29.80;97588.80;;;;110964;1247;41268;-65
2022/08/12 06:07:01;;;;;;;4.60;1.80;;;;;29.62;97592.00;;;;110985;1249;41791;-65
2022/08/12 06:09:51;;;;;;;4.00;1.60;;;;;29.18;97601.20;;;;110749;1251;42171;-65
2022/08/12 06:12:22;;;;;;;3.30;1.80;;;;;29.12;97601.40;;;;110682;1251;41137;-65
2022/08/12 06:14:54;;;;;;;5.50;2.20;;;;;29.14;97602.80;;;;110865;1249;42520;-65
2022/08/12 06:17:23;;;;;;;4.40;1.90;;;;;28.60;97602.00;;;;110621;1249;41141;-65
2022/08/12 06:19:51;;;;;;;3.20;1.70;;;;;28.94;97599.00;;;;110612;1249;42163;-65
2022/08/12 06:22:42;;;;;;;3.40;1.70;;;;;29.08;97600.20;;;;110816;1249;41260;-64
2022/08/12 06:25:12;;;;;;;;;;;;;28.46;97599.80;;;;110804;1249;41147;-65
2022/08/12 06:27:47;;;;;;;5.00;1.90;;;;;28.62;97594.80;;;;110840;1249;41159;-65
2022/08/12 06:30:35;;;;;;;6.70;1.70;;;;;28.34;97602.60;;;;110720;1249;41281;-63
2022/08/12 06:33:07;;;;;;;5.20;2.10;;;;;27.90;97601.00;;;;111003;1249;42382;-65
2022/08/12 06:35:51;;;;;;;4.60;1.90;;;;;27.70;97605.80;;;;111113;1247;41344;-65
2022/08/12 06:38:26;;;;;;;6.30;2.20;;;;;27.54;97603.40;;;;110798;1248;41553;-66
2022/08/12 06:43:50;;;;;;;6.50;2.10;;;;;27.90;97597.20;;;;110665;1250;41264;-65
2022/08/12 06:46:38;;;;;;;4.50;2.10;;;;;27.98;97592.80;;;;110834;1250;41143;-65
2022/08/12 06:49:12;;;;;;;9.30;2.60;;;;;28.10;97589.40;;;;111013;1248;41904;-65
2022/08/12 06:51:40;;;;;;;5.00;1.90;;;;;27.70;97589.20;;;;110676;1250;41336;-64
2022/08/12 06:54:10;;;;;;;7.40;2.20;;;;;27.70;97591.40;;;;110756;1250;41464;-64
2022/08/12 06:56:39;;;;;;;12.20;2.40;;;;;27.54;97588.60;;;;110844;1249;41136;-64
2022/08/12 06:59:28;;;;;;;5.10;2.30;;;;;26.92;97587.20;;;;110899;1249;41143;-63
2022/08/12 07:01:57;;;;;;;6.50;2.30;;;;;26.94;97593.60;;;;110838;1251;41843;-65
2022/08/12 07:04:26;;;;;;;5.20;2.10;;;;;27.54;97599.60;;;;110770;1249;41189;-64
2022/08/12 07:07:11;;;;;;;4.10;2.00;;;;;27.52;97598.60;;;;110940;1250;43117;-64
2022/08/12 07:09:44;;;;;;;5.00;2.00;;;;;27.76;97596.60;;;;111034;1248;41171;-65
2022/08/12 07:12:32;;;;;;;6.40;2.00;;;;;28.28;97599.00;;;;110993;1249;41264;-65
2022/08/12 07:15:03;;;;;;;5.10;2.10;;;;;28.40;97595.60;;;;111043;1249;41272;-65
2022/08/12 07:17:35;;;;;;;;;;;;;28.42;97595.80;;;;111058;1249;41458;-64
2022/08/12 07:20:11;;;;;;;3.40;1.70;;;;;29.58;97595.80;;;;110949;1249;41177;-64
2022/08/12 07:23:04;;;;;;;5.20;2.00;;;;;30.20;97592.00;;;;110877;1248;41737;-64
2022/08/12 07:25:34;;;;;;;3.50;1.70;;;;;30.50;97595.60;;;;111044;1249;41651;-65
2022/08/12 07:28:14;;;;;;;5.80;2.00;;;;;31.20;97593.60;;;;111016;1249;41155;-65
2022/08/12 07:30:47;;;;;;;2.70;1.60;;;;;31.74;97586.20;;;;111017;1249;41354;-65
2022/08/12 07:33:21;;;;;;;5.10;1.70;;;;;32.30;97583.40;;;;110983;1249;41624;-65
2022/08/12 07:35:52;;;;;;;5.40;1.90;;;;;32.30;97591.80;;;;110933;1250;41589;-64
2022/08/12 07:38:29;;;;;;;2.90;1.50;;;;;32.26;97589.80;;;;111090;1247;42369;-64
2022/08/12 07:41:26;;;;;;;4.20;1.80;;;;;32.52;97591.60;;;;111050;1247;41262;-65
2022/08/12 07:43:59;;;;;;;3.90;1.70;;;;;33.22;97585.20;;;;111048;1248;41652;-65
2022/08/12 07:46:35;;;;;;;4.10;1.80;;;;;33.70;97583.80;;;;111134;1248;42272;-65
2022/08/12 07:49:08;;;;;;;3.50;1.70;;;;;33.70;97587.80;;;;110918;1249;41251;-66
2022/08/12 07:51:37;;;;;;;3.80;1.70;;;;;33.22;97586.60;;;;110596;1252;41279;-66
2022/08/12 07:54:08;;;;;;;3.50;1.50;;;;;32.74;97585.80;;;;110842;1250;41154;-66
2022/08/12 07:56:39;;;;;;;3.90;1.80;;;;;32.22;97590.60;;;;110616;1252;41149;-65
2022/08/12 07:59:08;;;;;;;3.60;1.60;;;;;31.86;97594.80;;;;110657;1250;41866;-65
2022/08/12 08:01:38;;;;;;;4.30;1.60;;;;;31.46;97599.80;;;;110779;1249;42383;-65
2022/08/12 08:06:56;;;;;;;4.00;1.60;;;;;31.56;97606.20;;;;111062;1248;42153;-65
2022/08/12 08:09:25;;;;;;;5.70;1.60;;;;;32.32;97603.00;;;;110724;1250;41135;-64
2022/08/12 08:14:47;;;;;;;4.80;1.90;;;;;33.60;97587.80;;;;110756;1249;41353;-64
2022/08/12 08:17:17;;;;;;;6.60;1.90;;;;;34.10;97587.80;;;;110970;1250;41199;-65
2022/08/12 08:19:51;;;;;;;3.20;1.60;;;;;34.50;97583.80;;;;110703;1249;41242;-64
2022/08/12 08:22:37;;;;;;;2.30;1.40;;;;;34.70;97584.40;;;;110810;1249;41159;-65
2022/08/12 08:25:10;;;;;;;4.30;1.60;;;;;35.06;97582.40;;;;110596;1250;41770;-64
2022/08/12 08:28:01;;;;;;;3.50;1.60;;;;;35.42;97581.00;;;;110818;1249;42188;-64
2022/08/12 08:30:31;;;;;;;2.50;1.30;;;;;35.76;97579.60;;;;110800;1250;41156;-64
2022/08/12 08:33:00;;;;;;;7.20;1.60;;;;;35.90;97575.40;;;;110779;1249;41148;-65
2022/08/12 08:35:28;;;;;;;3.90;1.60;;;;;36.22;97572.00;;;;110757;1249;42410;-65
2022/08/12 08:38:16;;;;;;;2.40;1.40;;;;;36.58;97569.20;;;;110681;1249;41335;-66
2022/08/12 08:43:43;;;;;;;3.20;1.60;;;;;37.00;97568.00;;;;110620;1250;41213;-66
2022/08/12 08:46:13;;;;;;;3.50;1.60;;;;;37.10;97571.40;;;;110860;1249;41144;-64
2022/08/12 08:48:41;;;;;;;3.90;1.50;;;;;37.30;97569.20;;;;110893;1249;42045;-66
2022/08/12 08:51:10;;;;;;;2.40;1.40;;;;;37.14;97566.60;;;;110754;1248;41264;-66
2022/08/12 08:53:40;;;;;;;3.60;1.50;;;;;37.20;97558.80;;;;110792;1250;41372;-66
2022/08/12 08:56:12;;;;;;;3.10;1.50;;;;;37.20;97555.60;;;;110980;1250;41946;-65
2022/08/12 08:58:44;;;;;;;3.40;1.50;;;;;37.30;97552.00;;;;110953;1249;42373;-66
2022/08/12 09:01:19;;;;;;;2.40;1.30;;;;;37.10;97549.40;;;;111159;1247;41148;-65
2022/08/12 09:03:48;;;;;;;1.70;1.20;;;;;37.00;97548.80;;;;111039;1250;41929;-66
2022/08/12 09:06:40;;;;;;;2.60;1.30;;;;;37.56;97549.60;;;;111130;1249;42142;-66
2022/08/12 09:09:20;;;;;;;1.80;1.30;;;;;37.46;97547.40;;;;111221;1249;41152;-66
2022/08/12 09:14:42;;;;;;;6.40;1.50;;;;;36.96;97546.60;;;;110868;1249;42214;-66
2022/08/12 09:17:19;;;;;;;2.30;1.30;;;;;37.16;97546.00;;;;111176;1249;41192;-66
2022/08/12 09:19:49;;;;;;;1.80;1.30;;;;;37.40;97550.20;;;;111053;1250;42495;-65
2022/08/12 09:22:25;;;;;;;2.40;1.30;;;;;37.54;97547.80;;;;111047;1250;41270;-66
2022/08/12 09:24:55;;;;;;;2.60;1.40;;;;;37.90;97545.40;;;;111118;1249;41144;-65
2022/08/12 09:27:27;;;;;;;2.60;1.40;;;;;38.22;97541.00;;;;111079;1250;41164;-65
2022/08/12 09:30:16;;;;;;;2.20;1.30;;;;;38.20;97543.40;;;;110885;1248;41162;-66
2022/08/12 09:32:49;;;;;;;3.60;1.20;;;;;37.90;97543.80;;;;111042;1248;41245;-66
2022/08/12 09:35:33;;;;;;;1.40;1.20;;;;;38.08;97543.00;;;;110969;1249;41716;-66
2022/08/12 09:38:16;;;;;;;3.50;1.30;;;;;38.20;97541.40;;;;111114;1250;41722;-67
2022/08/12 09:40:56;;;;;;;3.10;1.30;;;;;38.20;97540.80;;;;111034;1250;41142;-67
2022/08/12 09:46:32;;;;;;;3.90;1.40;;;;;38.14;97537.80;;;;111033;1248;41281;-67
2022/08/12 09:49:03;;;;;;;3.60;1.40;;;;;37.88;97540.20;;;;111077;1250;41792;-66
2022/08/12 09:51:42;;;;;;;2.20;1.30;;;;;37.80;97537.80;;;;111015;1249;42483;-67
2022/08/12 09:54:12;;;;;;;1.70;1.20;;;;;37.94;97529.60;;;;111053;1250;41258;-66
2022/08/12 09:56:59;;;;;;;2.30;1.30;;;;;37.80;97527.40;;;;111071;1249;41267;-66
2022/08/12 09:59:47;;;;;;;1.80;1.30;;;;;38.04;97527.80;;;;110949;1249;41743;-65
2022/08/12 10:02:57;;;;;;;2.60;1.20;;;;;37.88;97528.80;;;;110932;1248;41769;-66
2022/08/12 10:05:26;;;;;;;2.30;1.20;;;;;37.98;97525.00;;;;111018;1248;42394;-66
2022/08/12 10:08:16;;;;;;;1.80;1.20;;;;;38.20;97523.80;;;;110842;1250;41260;-66
2022/08/12 10:13:43;;;;;;;2.90;1.40;;;;;38.50;97519.00;;;;110868;1250;41447;-66
2022/08/12 10:16:16;;;;;;;2.00;1.20;;;;;38.32;97513.80;;;;110916;1250;41270;-66
2022/08/12 10:18:48;;;;;;;1.50;1.10;;;;;38.40;97510.80;;;;110897;1248;41258;-66
2022/08/12 10:21:25;;;;;;;2.40;1.20;;;;;38.70;97507.00;;;;110979;1250;42398;-65
2022/08/12 10:24:06;;;;;;;1.70;1.10;;;;;38.54;97498.20;;;;110936;1250;42211;-65
2022/08/12 10:29:37;;;;;;;1.80;1.20;;;;;38.30;97497.20;;;;110936;1249;41601;-66
2022/08/12 10:32:26;;;;;;;1.30;1.10;;;;;37.86;97493.40;;;;110995;1248;41194;-66
2022/08/12 10:35:14;;;;;;;2.00;1.10;;;;;37.70;97494.20;;;;110818;1249;41140;-66
2022/08/12 10:37:44;;;;;;;2.10;1.30;;;;;37.66;97494.00;;;;110948;1249;41502;-66
2022/08/12 10:43:39;;;;;;;1.50;1.10;;;;;37.70;97492.80;;;;110587;1249;41963;-65
2022/08/12 10:46:24;;;;;;;1.50;1.20;;;;;37.60;97489.20;;;;110966;1250;41164;-65
2022/08/12 10:48:58;;;;;;;2.00;1.30;;;;;37.74;97482.20;;;;110990;1248;42064;-66
2022/08/12 10:51:33;;;;;;;2.20;1.30;;;;;37.80;97476.80;;;;110984;1249;41569;-66
2022/08/12 10:54:22;;;;;;;1.80;1.20;;;;;37.78;97475.40;;;;110936;1249;41307;-66
2022/08/12 10:56:56;;;;;;;1.80;1.10;;;;;37.06;97479.40;;;;111045;1247;41718;-66
2022/08/12 10:59:29;;;;;;;1.30;1.00;;;;;37.10;97480.60;;;;110908;1250;41167;-66
2022/08/12 11:02:06;;;;;;;2.00;1.30;;;;;37.38;97479.40;;;;110938;1250;41149;-66
2022/08/12 11:04:58;;;;;;;2.20;1.20;;;;;37.30;97479.00;;;;110591;1251;41273;-66
2022/08/12 11:07:49;;;;;;;2.90;1.20;;;;;37.46;97482.40;;;;110653;1250;41148;-65
2022/08/12 11:10:38;;;;;;;2.40;1.20;;;;;37.76;97477.80;;;;110844;1248;41150;-66
2022/08/12 11:13:07;;;;;;;1.30;1.10;;;;;38.06;97472.40;;;;110940;1249;41459;-65
2022/08/12 11:15:36;;;;;;;1.60;1.10;;;;;38.50;97469.80;;;;110904;1250;41153;-66
2022/08/12 11:18:26;;;;;;;3.80;1.30;;;;;39.32;97452.40;;;;110996;1250;41165;-66
2022/08/12 11:20:55;;;;;;;1.50;1.10;;;;;38.84;97464.40;;;;110887;1249;42426;-66
2022/08/12 11:23:25;;;;;;;1.60;1.10;;;;;39.24;97460.40;;;;110753;1249;42317;-66
2022/08/12 11:26:05;;;;;;;1.90;1.10;;;;;40.00;97456.80;;;;110862;1249;41150;-66
2022/08/12 11:28:35;;;;;;;1.70;1.20;;;;;40.78;97454.00;;;;110701;1251;41246;-67
2022/08/12 11:31:08;;;;;;;2.10;1.10;;;;;41.00;97452.00;;;;110612;1251;41251;-66
2022/08/12 11:33:42;;;;;;;1.70;1.20;;;;;41.28;97450.40;;;;110814;1250;42408;-67
2022/08/12 11:36:31;;;;;;;2.40;1.20;;;;;41.30;97457.40;;;;110652;1250;41128;-65
2022/08/12 11:38:59;;;;;;;1.50;1.00;;;;;41.76;97448.80;;;;110796;1251;41155;-66
2022/08/12 11:41:34;;;;;;;2.20;1.10;;;;;41.96;97446.00;;;;110762;1250;41160;-66
2022/08/12 11:44:03;;;;;;;2.30;1.00;;;;;42.36;97446.80;;;;110823;1251;41619;-66
2022/08/12 11:46:53;;;;;;;1.90;1.20;;;;;42.70;97442.20;;;;110767;1250;41748;-66
2022/08/12 11:49:23;;;;;;;1.80;1.10;;;;;42.78;97444.80;;;;110635;1249;41155;-66
2022/08/12 11:52:02;;;;;;;1.40;1.10;;;;;42.90;97440.80;;;;110954;1248;41194;-67
2022/08/12 11:54:31;;;;;;;2.30;1.20;;;;;43.04;97440.20;;;;110910;1250;41718;-67
2022/08/12 11:57:01;;;;;;;1.00;0.90;;;;;42.82;97429.00;;;;110946;1250;41273;-66
2022/08/12 11:59:50;;;;;;;2.00;1.00;;;;;42.72;97431.40;;;;110973;1249;41267;-67
2022/08/12 12:02:38;;;;;;;;;;;;;42.98;97424.80;;;;110903;1249;41454;-68
2022/08/12 12:05:08;;;;;;;1.60;1.30;;;;;42.80;97426.00;;;;110961;1250;41862;-66
2022/08/12 12:07:38;;;;;;;2.20;1.30;;;;;42.80;97424.80;;;;110782;1249;41652;-66
2022/08/12 12:10:26;;;;;;;2.60;1.20;;;;;42.80;97423.00;;;;110911;1250;41726;-66
2022/08/12 12:12:57;;;;;;;1.60;1.20;;;;;42.30;97423.40;;;;110729;1251;41134;-67
2022/08/12 12:15:26;;;;;;;4.00;1.40;;;;;42.58;97422.20;;;;110855;1250;41143;-66
2022/08/12 12:18:27;;;;;;;2.70;1.30;;;;;42.98;97420.20;;;;110922;1250;41187;-67
2022/08/12 12:21:00;;;;;;;1.50;1.10;;;;;42.90;97418.40;;;;110891;1249;41624;-67
2022/08/12 12:23:29;;;;;;;2.70;1.30;;;;;42.70;97417.40;;;;110915;1249;41158;-67
2022/08/12 12:25:58;;;;;;;2.40;1.10;;;;;42.58;97420.60;;;;110778;1250;42441;-67
2022/08/12 12:28:37;;;;;;;4.10;1.40;;;;;42.58;97420.00;;;;110651;1249;41662;-67
2022/08/12 12:31:07;;;;;;;2.40;1.40;;;;;42.20;97417.60;;;;110760;1250;41140;-67
2022/08/12 12:33:35;;;;;;;1.90;1.20;;;;;41.98;97417.00;;;;110712;1251;41140;-67
2022/08/12 12:36:25;;;;;;;2.60;1.30;;;;;41.40;97421.60;;;;110677;1250;41152;-67
2022/08/12 12:38:58;;;;;;;2.30;1.30;;;;;41.30;97413.60;;;;110835;1252;41596;-67
2022/08/12 12:41:28;;;;;;;1.70;1.10;;;;;41.20;97411.60;;;;110611;1251;41470;-65
2022/08/12 12:44:16;;;;;;;2.50;1.40;;;;;41.04;97408.80;;;;110676;1250;41261;-67
2022/08/12 12:46:53;;;;;;;1.00;0.90;;;;;40.90;97413.20;;;;110624;1252;41146;-67
2022/08/12 12:49:22;;;;;;;4.90;1.40;;;;;41.18;97409.60;;;;110730;1250;41554;-67
2022/08/12 12:51:53;;;;;;;2.70;1.40;;;;;41.30;97403.60;;;;110720;1250;41831;-68
2022/08/12 12:54:51;;;;;;;;;;;;;41.28;97403.00;;;;110951;1250;41158;-66
2022/08/12 12:57:21;;;;;;;3.10;1.30;;;;;40.38;97401.00;;;;110570;1250;41175;-66
2022/08/12 13:00:19;;;;;;;1.60;1.20;;;;;39.50;97404.80;;;;110867;1249;41262;-67
2022/08/12 13:02:57;;;;;;;2.60;1.50;;;;;38.70;97403.60;;;;111081;1250;41842;-67
2022/08/12 13:05:38;;;;;;;2.70;1.40;;;;;37.78;97403.60;;;;111008;1249;41255;-67
2022/08/12 13:08:23;;;;;;;3.90;1.60;;;;;37.20;97393.20;;;;110807;1250;41340;-67
2022/08/12 13:11:02;;;;;;;3.40;1.40;;;;;36.62;97394.60;;;;110993;1248;41144;-67
2022/08/12 13:13:35;;;;;;;2.20;1.10;;;;;36.16;97397.20;;;;110782;1251;41163;-67
2022/08/12 13:16:28;;;;;;;4.00;1.50;;;;;35.80;97395.20;;;;110934;1251;41253;-67
2022/08/12 13:18:57;;;;;;;2.00;1.20;;;;;35.50;97397.00;;;;110711;1251;41610;-66
2022/08/12 13:21:31;;;;;;;2.80;1.40;;;;;35.26;97392.60;;;;110929;1250;42523;-66
2022/08/12 13:24:04;;;;;;;2.70;1.40;;;;;35.10;97391.60;;;;110893;1251;41538;-66
2022/08/12 13:26:38;;;;;;;2.60;1.40;;;;;35.00;97387.60;;;;110684;1251;41367;-66
2022/08/12 13:29:07;;;;;;;2.70;1.50;;;;;34.80;97381.20;;;;110932;1249;41602;-66
2022/08/12 13:31:41;;;;;;;2.90;1.50;;;;;34.60;97384.80;;;;111011;1250;41640;-66
2022/08/12 13:34:20;;;;;;;2.80;1.50;;;;;34.50;97382.60;;;;111022;1248;41248;-66
2022/08/12 13:37:04;;;;;;;2.20;1.40;;;;;34.30;97382.60;;;;110946;1250;41263;-66
2022/08/12 13:39:37;;;;;;;4.10;1.80;;;;;34.04;97379.80;;;;110981;1249;41150;-65
2022/08/12 13:42:08;;;;;;;2.80;1.40;;;;;33.90;97375.20;;;;111054;1250;41143;-65
2022/08/12 13:44:42;;;;;;;3.80;1.60;;;;;33.60;97373.80;;;;111009;1249;41161;-65
2022/08/12 13:47:11;;;;;;;3.70;1.50;;;;;33.50;97375.20;;;;111019;1250;41258;-66
2022/08/12 13:49:48;;;;;;;4.40;1.70;;;;;33.40;97372.00;;;;110992;1249;41308;-65
2022/08/12 13:52:23;;;;;;;2.80;1.60;;;;;33.26;97375.40;;;;110794;1250;41488;-65
2022/08/12 13:54:52;;;;;;;3.60;1.50;;;;;32.90;97375.20;;;;111049;1250;41252;-65
2022/08/12 13:57:39;;;;;;;1.90;1.40;;;;;32.60;97380.80;;;;110997;1250;41153;-64
2022/08/12 14:00:13;;;;;;;3.00;1.50;;;;;32.48;97377.60;;;;110966;1250;41268;-65
2022/08/12 14:02:41;;;;;;;3.30;1.60;;;;;32.20;97378.60;;;;110696;1250;41142;-65
2022/08/12 14:05:10;;;;;;;3.20;1.50;;;;;32.20;97375.60;;;;110947;1250;41136;-65
2022/08/12 14:08:02;;;;;;;4.50;1.90;;;;;32.10;97375.20;;;;110958;1250;41258;-65
2022/08/12 14:10:37;;;;;;;3.50;1.60;;;;;32.02;97370.80;;;;111041;1250;41117;-65
2022/08/12 14:13:17;;;;;;;2.50;1.40;;;;;32.10;97370.80;;;;111018;1250;41144;-66
2022/08/12 14:16:08;;;;;;;4.90;1.60;;;;;32.10;97365.80;;;;110718;1251;42443;-66
2022/08/12 14:18:41;;;;;;;4.70;1.80;;;;;32.00;97362.80;;;;110854;1251;41395;-65
2022/08/12 14:21:13;;;;;;;2.30;1.40;;;;;31.84;97363.00;;;;110997;1250;41366;-65
2022/08/12 14:23:49;;;;;;;2.90;1.50;;;;;31.80;97366.60;;;;111029;1250;41154;-65
2022/08/12 14:26:33;;;;;;;3.30;1.60;;;;;31.80;97362.60;;;;111001;1250;41261;-65
2022/08/12 14:29:02;;;;;;;4.70;1.90;;;;;31.90;97358.80;;;;110983;1248;41149;-64
2022/08/12 14:31:31;;;;;;;4.70;2.00;;;;;31.28;97354.40;;;;111047;1248;41612;-65
2022/08/12 14:34:02;;;;;;;4.50;2.00;;;;;31.30;97357.00;;;;110861;1250;41662;-65
2022/08/12 14:36:32;;;;;;;4.00;1.70;;;;;31.30;97362.00;;;;110988;1247;41157;-65
2022/08/12 14:39:03;;;;;;;3.70;1.70;;;;;31.28;97364.20;;;;110763;1250;41634;-64